sensor_id;sensor_type;location;lat;lon;timestamp;pressure;altitude;pressure_sealevel;temperature;humidity
20145;BME280;10233;50.814;6.590;2024-01-11T00:00:38;101677.59;;;-3.91;100.00
20145;BME280;10233;50.814;6.590;2024-01-11T00:01:39;101672.25;;;-3.88;100.00
20145;BME280;10233;50.814;6.590;2024-01-11T00:02:39;101670.72;;;-3.92;100.00
20145;BME280;10233;50.814;6.590;2024-01-11T00:03:40;101673.13;;;-3.88;100.00
20145;BME280;10233;50.814;6.590;2024-01-11T00:04:40;101672.13;;;-3.85;100.00
20145;BME280;10233;50.814;6.590;2024-01-11T00:05:41;101670.41;;;-3.86;100.00
20145;BME280;10233;50.814;6.590;2024-01-11T00:06:42;101673.38;;;-3.94;100.00
20145;BME280;10233;50.814;6.590;2024-01-11T00:07:43;101669.13;;;-3.95;100.00
20145;BME280;10233;50.814;6.590;2024-01-11T00:08:44;101673.38;;;-3.94;100.00
20145;BME280;10233;50.814;6.590;2024-01-11T00:09:44;101671.84;;;-3.98;100.00
20145;BME280;10233;50.814;6.590;2024-01-11T00:10:45;101681.88;;;-3.90;100.00
20145;BME280;10233;50.814;6.590;2024-01-11T00:11:45;101673.88;;;-3.86;100.00
20145;BME280;10233;50.814;6.590;2024-01-11T00:12:46;101679.44;;;-3.93;100.00
20145;BME280;10233;50.814;6.590;2024-01-11T00:13:46;101673.69;;;-4.00;100.00
20145;BME280;10233;50.814;6.590;2024-01-11T00:14:47;101687.66;;;-4.02;100.00
20145;BME280;10233;50.814;6.590;2024-01-11T00:15:47;101679.63;;;-3.98;100.00
20145;BME280;10233;50.814;6.590;2024-01-11T00:16:47;101684.94;;;-3.99;100.00
20145;BME280;10233;50.814;6.590;2024-01-11T00:17:48;101684.63;;;-3.93;100.00
20145;BME280;10233;50.814;6.590;2024-01-11T00:18:48;101678.81;;;-3.98;100.00
20145;BME280;10233;50.814;6.590;2024-01-11T00:19:49;101685.81;;;-4.00;100.00
20145;BME280;10233;50.814;6.590;2024-01-11T00:20:50;101681.53;;;-4.01;100.00
20145;BME280;10233;50.814;6.590;2024-01-11T00:21:52;101688.78;;;-4.08;100.00
20145;BME280;10233;50.814;6.590;2024-01-11T00:22:52;101685.66;;;-4.14;100.00
20145;BME280;10233;50.814;6.590;2024-01-11T00:23:53;101687.03;;;-4.07;100.00
20145;BME280;10233;50.814;6.590;2024-01-11T00:24:53;101684.56;;;-4.10;100.00
20145;BME280;10233;50.814;6.590;2024-01-11T00:25:54;101683.75;;;-4.11;100.00
20145;BME280;10233;50.814;6.590;2024-01-11T00:26:54;101680.84;;;-4.22;100.00
20145;BME280;10233;50.814;6.590;2024-01-11T00:27:55;101683.28;;;-4.19;100.00
20145;BME280;10233;50.814;6.590;2024-01-11T00:28:55;101688.03;;;-4.10;100.00
20145;BME280;10233;50.814;6.590;2024-01-11T00:29:56;101690.31;;;-4.21;100.00
20145;BME280;10233;50.814;6.590;2024-01-11T00:30:56;101688.53;;;-4.20;100.00
20145;BME280;10233;50.814;6.590;2024-01-11T00:31:56;101691.53;;;-4.11;100.00
20145;BME280;10233;50.814;6.590;2024-01-11T00:32:58;101697.41;;;-4.07;100.00
20145;BME280;10233;50.814;6.590;2024-01-11T00:33:59;101702.28;;;-4.18;100.00
20145;BME280;10233;50.814;6.590;2024-01-11T00:34:59;101701.78;;;-4.26;100.00
20145;BME280;10233;50.814;6.590;2024-01-11T00:36:00;101698.38;;;-4.27;100.00
20145;BME280;10233;50.814;6.590;2024-01-11T00:37:00;101696.59;;;-4.26;100.00
20145;BME280;10233;50.814;6.590;2024-01-11T00:38:00;101685.78;;;-4.17;100.00
20145;BME280;10233;50.814;6.590;2024-01-11T00:39:01;101698.63;;;-4.14;100.00
20145;BME280;10233;50.814;6.590;2024-01-11T00:40:01;101694.06;;;-4.09;100.00
20145;BME280;10233;50.814;6.590;2024-01-11T00:41:02;101699.09;;;-4.06;100.00
20145;BME280;10233;50.814;6.590;2024-01-11T00:42:03;101692.84;;;-4.02;100.00
20145;BME280;10233;50.814;6.590;2024-01-11T00:43:04;101698.28;;;-4.07;100.00
20145;BME280;10233;50.814;6.590;2024-01-11T00:44:04;101696.88;;;-4.14;100.00
20145;BME280;10233;50.814;6.590;2024-01-11T00:45:05;101696.44;;;-4.05;100.00
20145;BME280;10233;50.814;6.590;2024-01-11T00:46:06;101697.91;;;-4.18;100.00
20145;BME280;10233;50.814;6.590;2024-01-11T00:47:07;101690.56;;;-4.08;100.00
20145;BME280;10233;50.814;6.590;2024-01-11T00:48:08;101690.25;;;-4.02;100.00
20145;BME280;10233;50.814;6.590;2024-01-11T00:49:08;101696.66;;;-4.09;100.00
20145;BME280;10233;50.814;6.590;2024-01-11T00:50:09;101700.16;;;-4.10;100.00
20145;BME280;10233;50.814;6.590;2024-01-11T00:51:09;101695.75;;;-4.08;100.00
20145;BME280;10233;50.814;6.590;2024-01-11T00:52:10;101698.28;;;-4.07;100.00
20145;BME280;10233;50.814;6.590;2024-01-11T00:53:13;101698.28;;;-4.07;100.00
20145;BME280;10233;50.814;6.590;2024-01-11T00:54:14;101699.47;;;-4.14;100.00
20145;BME280;10233;50.814;6.590;2024-01-11T00:55:15;101694.13;;;-4.11;100.00
20145;BME280;10233;50.814;6.590;2024-01-11T00:56:19;101698.63;;;-4.14;100.00
20145;BME280;10233;50.814;6.590;2024-01-11T00:57:20;101693.72;;;-4.20;100.00
20145;BME280;10233;50.814;6.590;2024-01-11T00:58:20;101693.44;;;-4.14;100.00
20145;BME280;10233;50.814;6.590;2024-01-11T00:59:21;101691.84;;;-4.17;100.00
20145;BME280;10233;50.814;6.590;2024-01-11T01:00:21;101691.91;;;-4.18;100.00
20145;BME280;10233;50.814;6.590;2024-01-11T01:01:22;101692.03;;;-4.21;100.00
20145;BME280;10233;50.814;6.590;2024-01-11T01:02:22;101697.72;;;-4.13;100.00
20145;BME280;10233;50.814;6.590;2024-01-11T01:03:23;101691.59;;;-4.12;100.00
20145;BME280;10233;50.814;6.590;2024-01-11T01:04:23;101691.75;;;-4.15;100.00
20145;BME280;10233;50.814;6.590;2024-01-11T01:05:23;101695.88;;;-4.11;100.00
20145;BME280;10233;50.814;6.590;2024-01-11T01:06:24;101699.75;;;-4.20;100.00
20145;BME280;10233;50.814;6.590;2024-01-11T01:07:24;101698.63;;;-4.14;100.00
20145;BME280;10233;50.814;6.590;2024-01-11T01:08:25;101706.56;;;-4.17;100.00
20145;BME280;10233;50.814;6.590;2024-01-11T01:09:25;101701.38;;;-4.17;100.00
20145;BME280;10233;50.814;6.590;2024-01-11T01:10:26;101702.13;;;-4.15;100.00
20145;BME280;10233;50.814;6.590;2024-01-11T01:11:26;101706.13;;;-4.08;100.00
20145;BME280;10233;50.814;6.590;2024-01-11T01:12:26;101695.88;;;-4.11;100.00
20145;BME280;10233;50.814;6.590;2024-01-11T01:13:27;101699.53;;;-4.15;100.00
20145;BME280;10233;50.814;6.590;2024-01-11T01:14:27;101697.56;;;-4.10;100.00
20145;BME280;10233;50.814;6.590;2024-01-11T01:15:28;101698.47;;;-4.11;100.00
20145;BME280;10233;50.814;6.590;2024-01-11T01:16:28;101697.09;;;-4.18;100.00
20145;BME280;10233;50.814;6.590;2024-01-11T01:17:29;101698.63;;;-4.14;100.00
20145;BME280;10233;50.814;6.590;2024-01-11T01:18:29;101698.16;;;-4.22;100.00
20145;BME280;10233;50.814;6.590;2024-01-11T01:19:30;101692.81;;;-4.19;100.00
20145;BME280;10233;50.814;6.590;2024-01-11T01:20:30;101695.63;;;-4.24;100.00
20145;BME280;10233;50.814;6.590;2024-01-11T01:21:30;101694.63;;;-4.21;100.00
20145;BME280;10233;50.814;6.590;2024-01-11T01:22:31;101703.19;;;-4.19;100.00
20145;BME280;10233;50.814;6.590;2024-01-11T01:23:31;101689.59;;;-4.24;100.00
20145;BME280;10233;50.814;6.590;2024-01-11T01:24:32;101691.91;;;-4.18;100.00
20145;BME280;10233;50.814;6.590;2024-01-11T01:25:32;101694.63;;;-4.21;100.00
20145;BME280;10233;50.814;6.590;2024-01-11T01:26:33;101697.28;;;-4.23;100.00
20145;BME280;10233;50.814;6.590;2024-01-11T01:27:33;101702.59;;;-4.24;100.00
20145;BME280;10233;50.814;6.590;2024-01-11T01:28:34;101700.88;;;-4.25;100.00
20145;BME280;10233;50.814;6.590;2024-01-11T01:29:34;101699.88;;;-4.23;100.00
20145;BME280;10233;50.814;6.590;2024-01-11T01:30:34;101702.47;;;-4.23;100.00
20145;BME280;10233;50.814;6.590;2024-01-11T01:31:35;101704.03;;;-4.19;100.00
20145;BME280;10233;50.814;6.590;2024-01-11T01:32:37;101715.09;;;-4.15;100.00
20145;BME280;10233;50.814;6.590;2024-01-11T01:33:39;101714.41;;;-4.19;100.00
20145;BME280;10233;50.814;6.590;2024-01-11T01:34:40;101715.56;;;-4.24;100.00
20145;BME280;10233;50.814;6.590;2024-01-11T01:35:40;101707.53;;;-4.20;100.00
20145;BME280;10233;50.814;6.590;2024-01-11T01:36:41;101710.88;;;-4.18;100.00
20145;BME280;10233;50.814;6.590;2024-01-11T01:37:41;101705.63;;;-4.16;100.00
20145;BME280;10233;50.814;6.590;2024-01-11T01:38:42;101708.84;;;-4.11;100.00
20145;BME280;10233;50.814;6.590;2024-01-11T01:39:43;101705.34;;;-4.10;100.00
20145;BME280;10233;50.814;6.590;2024-01-11T01:40:43;101715.09;;;-4.15;100.00
20145;BME280;10233;50.814;6.590;2024-01-11T01:41:44;101706.19;;;-4.10;100.00
20145;BME280;10233;50.814;6.590;2024-01-11T01:42:45;101703.66;;;-4.11;100.00
20145;BME280;10233;50.814;6.590;2024-01-11T01:43:46;101711.31;;;-4.08;100.00
20145;BME280;10233;50.814;6.590;2024-01-11T01:44:46;101712.00;;;-4.05;100.00
20145;BME280;10233;50.814;6.590;2024-01-11T01:45:47;101709.09;;;-3.99;100.00
20145;BME280;10233;50.814;6.590;2024-01-11T01:46:48;101707.50;;;-4.01;100.00
20145;BME280;10233;50.814;6.590;2024-01-11T01:47:50;101711.31;;;-4.08;100.00
20145;BME280;10233;50.814;6.590;2024-01-11T01:48:52;101718.78;;;-4.02;100.00
20145;BME280;10233;50.814;6.590;2024-01-11T01:49:53;101722.25;;;-4.02;100.00
20145;BME280;10233;50.814;6.590;2024-01-11T01:50:55;101719.84;;;-4.06;100.00
20145;BME280;10233;50.814;6.590;2024-01-11T01:51:56;101716.97;;;-4.00;100.00
20145;BME280;10233;50.814;6.590;2024-01-11T01:52:57;101718.03;;;-4.04;100.00
20145;BME280;10233;50.814;6.590;2024-01-11T01:53:59;101723.13;;;-4.03;100.00
20145;BME280;10233;50.814;6.590;2024-01-11T01:55:01;101719.34;;;-3.96;100.00
20145;BME280;10233;50.814;6.590;2024-01-11T01:56:03;101719.13;;;-3.91;100.00
20145;BME280;10233;50.814;6.590;2024-01-11T01:57:04;101723.25;;;-4.04;100.00
20145;BME280;10233;50.814;6.590;2024-01-11T01:58:05;101727.56;;;-4.05;100.00
20145;BME280;10233;50.814;6.590;2024-01-11T01:59:05;101720.47;;;-4.01;100.00
20145;BME280;10233;50.814;6.590;2024-01-11T02:00:08;101723.84;;;-3.99;100.00
20145;BME280;10233;50.814;6.590;2024-01-11T02:01:13;101720.63;;;-4.04;100.00
20145;BME280;10233;50.814;6.590;2024-01-11T02:02:15;101720.41;;;-4.00;100.00
20145;BME280;10233;50.814;6.590;2024-01-11T02:03:16;101721.47;;;-4.04;100.00
20145;BME280;10233;50.814;6.590;2024-01-11T02:04:16;101714.66;;;-4.06;100.00
20145;BME280;10233;50.814;6.590;2024-01-11T02:05:17;101714.53;;;-4.03;100.00
20145;BME280;10233;50.814;6.590;2024-01-11T02:06:22;101724.22;;;-4.07;100.00
20145;BME280;10233;50.814;6.590;2024-01-11T02:07:23;101723.38;;;-4.07;100.00
20145;BME280;10233;50.814;6.590;2024-01-11T02:08:25;101728.56;;;-4.07;100.00
20145;BME280;10233;50.814;6.590;2024-01-11T02:09:28;101717.88;;;-4.01;100.00
20145;BME280;10233;50.814;6.590;2024-01-11T02:10:30;101719.56;;;-4.00;100.00
20145;BME280;10233;50.814;6.590;2024-01-11T02:11:33;101723.69;;;-3.96;100.00
20145;BME280;10233;50.814;6.590;2024-01-11T02:12:35;101721.94;;;-3.96;100.00
20145;BME280;10233;50.814;6.590;2024-01-11T02:13:37;101725.28;;;-3.94;100.00
20145;BME280;10233;50.814;6.590;2024-01-11T02:14:38;101717.38;;;-3.91;100.00
20145;BME280;10233;50.814;6.590;2024-01-11T02:15:39;101720.97;;;-3.93;100.00
20145;BME280;10233;50.814;6.590;2024-01-11T02:16:39;101720.34;;;-3.98;100.00
20145;BME280;10233;50.814;6.590;2024-01-11T02:17:40;101714.97;;;-3.95;100.00
20145;BME280;10233;50.814;6.590;2024-01-11T02:18:41;101722.63;;;-3.92;100.00
20145;BME280;10233;50.814;6.590;2024-01-11T02:19:42;101719.13;;;-3.91;100.00
20145;BME280;10233;50.814;6.590;2024-01-11T02:20:43;101719.22;;;-3.93;100.00
20145;BME280;10233;50.814;6.590;2024-01-11T02:21:43;101724.31;;;-3.91;100.00
20145;BME280;10233;50.814;6.590;2024-01-11T02:22:51;101720.34;;;-3.98;100.00
20145;BME280;10233;50.814;6.590;2024-01-11T02:24:03;101719.28;;;-3.94;100.00
20145;BME280;10233;50.814;6.590;2024-01-11T02:25:04;101729.44;;;-3.90;100.00
20145;BME280;10233;50.814;6.590;2024-01-11T02:26:04;101717.59;;;-3.95;100.00
20145;BME280;10233;50.814;6.590;2024-01-11T02:27:05;101726.16;;;-3.93;100.00
20145;BME280;10233;50.814;6.590;2024-01-11T02:28:05;101720.09;;;-3.94;100.00
20145;BME280;10233;50.814;6.590;2024-01-11T02:29:06;101724.19;;;-3.88;100.00
20145;BME280;10233;50.814;6.590;2024-01-11T02:30:07;101723.50;;;-3.92;100.00
20145;BME280;10233;50.814;6.590;2024-01-11T02:31:07;101721.88;;;-3.94;100.00
20145;BME280;10233;50.814;6.590;2024-01-11T02:32:08;101727.13;;;-3.96;100.00
20145;BME280;10233;50.814;6.590;2024-01-11T02:33:09;101724.25;;;-3.90;100.00
20145;BME280;10233;50.814;6.590;2024-01-11T02:34:10;101726.03;;;-3.90;100.00
20145;BME280;10233;50.814;6.590;2024-01-11T02:35:10;101725.78;;;-3.86;100.00
20145;BME280;10233;50.814;6.590;2024-01-11T02:36:11;101732.59;;;-3.83;100.00
20145;BME280;10233;50.814;6.590;2024-01-11T02:37:12;101726.78;;;-3.88;100.00
20145;BME280;10233;50.814;6.590;2024-01-11T02:38:12;101733.56;;;-3.86;100.00
20145;BME280;10233;50.814;6.590;2024-01-11T02:39:16;101728.63;;;-3.73;100.00
20145;BME280;10233;50.814;6.590;2024-01-11T02:40:18;101730.09;;;-3.68;100.00
20145;BME280;10233;50.814;6.590;2024-01-11T02:41:19;101729.53;;;-3.74;100.00
20145;BME280;10233;50.814;6.590;2024-01-11T02:42:19;101725.72;;;-3.84;100.00
20145;BME280;10233;50.814;6.590;2024-01-11T02:43:20;101726.69;;;-3.87;100.00
20145;BME280;10233;50.814;6.590;2024-01-11T02:44:20;101721.75;;;-3.74;100.00
20145;BME280;10233;50.814;6.590;2024-01-11T02:45:20;101730.59;;;-3.78;100.00
20145;BME280;10233;50.814;6.590;2024-01-11T02:46:21;101721.50;;;-3.87;100.00
20145;BME280;10233;50.814;6.590;2024-01-11T02:47:21;101720.97;;;-3.93;100.00
20145;BME280;10233;50.814;6.590;2024-01-11T02:48:27;101725.53;;;-3.98;100.00
20145;BME280;10233;50.814;6.590;2024-01-11T02:49:28;101727.50;;;-4.03;100.00
20145;BME280;10233;50.814;6.590;2024-01-11T02:50:28;101730.22;;;-4.06;100.00
20145;BME280;10233;50.814;6.590;2024-01-11T02:51:28;101733.25;;;-4.15;100.00
20145;BME280;10233;50.814;6.590;2024-01-11T02:52:29;101732.50;;;-4.17;100.00
20145;BME280;10233;50.814;6.590;2024-01-11T02:53:29;101731.66;;;-4.18;100.00
20145;BME280;10233;50.814;6.590;2024-01-11T02:54:34;101739.22;;;-4.13;100.00
20145;BME280;10233;50.814;6.590;2024-01-11T02:55:34;101734.03;;;-4.13;100.00
20145;BME280;10233;50.814;6.590;2024-01-11T02:56:35;101732.50;;;-4.17;100.00
20145;BME280;10233;50.814;6.590;2024-01-11T02:57:35;101719.78;;;-4.05;100.00
20145;BME280;10233;50.814;6.590;2024-01-11T02:58:36;101726.19;;;-4.12;100.00
20145;BME280;10233;50.814;6.590;2024-01-11T02:59:36;101720.56;;;-4.21;100.00
20145;BME280;10233;50.814;6.590;2024-01-11T03:00:37;101720.44;;;-4.18;100.00
20145;BME280;10233;50.814;6.590;2024-01-11T03:01:37;101719.59;;;-4.19;100.00
20145;BME280;10233;50.814;6.590;2024-01-11T03:02:38;101715.69;;;-4.27;100.00
20145;BME280;10233;50.814;6.590;2024-01-11T03:03:38;101713.38;;;-4.33;100.00
20145;BME280;10233;50.814;6.590;2024-01-11T03:04:39;101709.88;;;-4.32;100.00
20145;BME280;10233;50.814;6.590;2024-01-11T03:05:39;101700.25;;;-4.30;100.00
20145;BME280;10233;50.814;6.590;2024-01-11T03:06:40;101701.09;;;-4.30;100.00
20145;BME280;10233;50.814;6.590;2024-01-11T03:07:41;101700.25;;;-4.30;100.00
20145;BME280;10233;50.814;6.590;2024-01-11T03:08:41;101706.97;;;-4.26;100.00
20145;BME280;10233;50.814;6.590;2024-01-11T03:09:41;101701.97;;;-4.29;100.00
20145;BME280;10233;50.814;6.590;2024-01-11T03:10:42;101705.66;;;-4.35;100.00
20145;BME280;10233;50.814;6.590;2024-01-11T03:11:42;101700.06;;;-4.26;100.00
20145;BME280;10233;50.814;6.590;2024-01-11T03:12:43;101697.75;;;-4.32;100.00
20145;BME280;10233;50.814;6.590;2024-01-11T03:13:43;101702.09;;;-4.32;100.00
20145;BME280;10233;50.814;6.590;2024-01-11T03:14:44;101702.94;;;-4.32;100.00
20145;BME280;10233;50.814;6.590;2024-01-11T03:15:44;101696.78;;;-4.29;100.00
20145;BME280;10233;50.814;6.590;2024-01-11T03:16:45;101700.00;;;-4.24;100.00
20145;BME280;10233;50.814;6.590;2024-01-11T03:17:45;101691.97;;;-4.20;100.00
20145;BME280;10233;50.814;6.590;2024-01-11T03:18:46;101693.50;;;-4.16;100.00
20145;BME280;10233;50.814;6.590;2024-01-11T03:19:46;101702.84;;;-4.12;100.00
20145;BME280;10233;50.814;6.590;2024-01-11T03:20:47;101700.25;;;-4.12;100.00
20145;BME280;10233;50.814;6.590;2024-01-11T03:21:47;101695.81;;;-4.10;100.00
20145;BME280;10233;50.814;6.590;2024-01-11T03:22:47;101690.38;;;-4.05;100.00
20145;BME280;10233;50.814;6.590;2024-01-11T03:23:48;101695.88;;;-4.11;100.00
20145;BME280;10233;50.814;6.590;2024-01-11T03:24:48;101698.47;;;-4.11;100.00
20145;BME280;10233;50.814;6.590;2024-01-11T03:25:49;101696.66;;;-4.09;100.00
20145;BME280;10233;50.814;6.590;2024-01-11T03:26:50;101692.22;;;-4.07;100.00
20145;BME280;10233;50.814;6.590;2024-01-11T03:27:50;101683.53;;;-4.06;100.00
20145;BME280;10233;50.814;6.590;2024-01-11T03:28:51;101684.69;;;-4.12;100.00
20145;BME280;10233;50.814;6.590;2024-01-11T03:29:51;101688.56;;;-4.03;100.00
20145;BME280;10233;50.814;6.590;2024-01-11T03:30:52;101680.16;;;-4.08;100.00
20145;BME280;10233;50.814;6.590;2024-01-11T03:31:52;101687.78;;;-4.05;100.00
20145;BME280;10233;50.814;6.590;2024-01-11T03:32:53;101688.34;;;-3.99;100.00
20145;BME280;10233;50.814;6.590;2024-01-11T03:33:53;101687.34;;;-3.96;100.00
20145;BME280;10233;50.814;6.590;2024-01-11T03:34:54;101689.13;;;-3.97;100.00
20145;BME280;10233;50.814;6.590;2024-01-11T03:35:54;101695.06;;;-3.95;100.00
20145;BME280;10233;50.814;6.590;2024-01-11T03:36:54;101686.22;;;-3.91;100.00
20145;BME280;10233;50.814;6.590;2024-01-11T03:37:55;101685.53;;;-3.94;100.00
20145;BME280;10233;50.814;6.590;2024-01-11T03:38:55;101679.56;;;-3.96;100.00
20145;BME280;10233;50.814;6.590;2024-01-11T03:39:56;101676.34;;;-4.01;100.00
20145;BME280;10233;50.814;6.590;2024-01-11T03:40:56;101679.13;;;-4.04;100.00
20145;BME280;10233;50.814;6.590;2024-01-11T03:41:57;101680.50;;;-3.97;100.00
20145;BME280;10233;50.814;6.590;2024-01-11T03:42:57;101684.94;;;-3.99;100.00
20145;BME280;10233;50.814;6.590;2024-01-11T03:43:57;101682.16;;;-3.96;100.00
20145;BME280;10233;50.814;6.590;2024-01-11T03:44:58;101665.78;;;-3.97;100.00
20145;BME280;10233;50.814;6.590;2024-01-11T03:45:58;101670.97;;;-3.97;100.00
20145;BME280;10233;50.814;6.590;2024-01-11T03:46:59;101671.03;;;-3.98;100.00
20145;BME280;10233;50.814;6.590;2024-01-11T03:47:59;101668.56;;;-4.01;100.00
20145;BME280;10233;50.814;6.590;2024-01-11T03:49:01;101665.84;;;-3.98;100.00
20145;BME280;10233;50.814;6.590;2024-01-11T03:50:01;101663.94;;;-3.95;100.00
20145;BME280;10233;50.814;6.590;2024-01-11T03:51:02;101663.44;;;-4.03;100.00
20145;BME280;10233;50.814;6.590;2024-01-11T03:52:03;101666.81;;;-4.01;100.00
20145;BME280;10233;50.814;6.590;2024-01-11T03:53:03;101663.69;;;-4.07;100.00
20145;BME280;10233;50.814;6.590;2024-01-11T03:54:04;101663.53;;;-4.04;100.00
20145;BME280;10233;50.814;6.590;2024-01-11T03:55:05;101666.16;;;-4.04;100.00
20145;BME280;10233;50.814;6.590;2024-01-11T03:56:06;101669.34;;;-3.99;100.00
20145;BME280;10233;50.814;6.590;2024-01-11T03:57:06;101674.53;;;-3.99;100.00
20145;BME280;10233;50.814;6.590;2024-01-11T03:58:07;101667.38;;;-3.94;100.00
20145;BME280;10233;50.814;6.590;2024-01-11T03:59:07;101663.84;;;-3.93;100.00
20145;BME280;10233;50.814;6.590;2024-01-11T04:00:08;101674.25;;;-3.93;100.00
20145;BME280;10233;50.814;6.590;2024-01-11T04:01:09;101669.19;;;-3.96;100.00
20145;BME280;10233;50.814;6.590;2024-01-11T04:02:10;101668.19;;;-3.94;100.00
20145;BME280;10233;50.814;6.590;2024-01-11T04:03:11;101664.00;;;-3.96;100.00
20145;BME280;10233;50.814;6.590;2024-01-11T04:04:11;101670.84;;;-3.95;100.00
20145;BME280;10233;50.814;6.590;2024-01-11T04:05:12;101669.72;;;-3.90;100.00
20145;BME280;10233;50.814;6.590;2024-01-11T04:06:20;101672.50;;;-3.93;100.00
20145;BME280;10233;50.814;6.590;2024-01-11T04:07:21;101679.06;;;-3.86;100.00
20145;BME280;10233;50.814;6.590;2024-01-11T04:08:22;101679.75;;;-3.82;100.00
20145;BME280;10233;50.814;6.590;2024-01-11T04:09:22;101674.47;;;-3.81;100.00
20145;BME280;10233;50.814;6.590;2024-01-11T04:10:22;101674.03;;;-3.72;100.00
20145;BME280;10233;50.814;6.590;2024-01-11T04:11:23;101680.16;;;-3.73;100.00
20145;BME280;10233;50.814;6.590;2024-01-11T04:12:27;101675.84;;;-3.74;100.00
20145;BME280;10233;50.814;6.590;2024-01-11T04:13:27;101683.19;;;-3.65;100.00
20145;BME280;10233;50.814;6.590;2024-01-11T04:14:28;101680.66;;;-3.66;100.00
20145;BME280;10233;50.814;6.590;2024-01-11T04:15:28;101680.81;;;-3.69;100.00
20145;BME280;10233;50.814;6.590;2024-01-11T04:16:29;101685.09;;;-3.68;100.00
20145;BME280;10233;50.814;6.590;2024-01-11T04:17:29;101680.44;;;-3.62;100.00
20145;BME280;10233;50.814;6.590;2024-01-11T04:18:29;101680.59;;;-3.65;100.00
20145;BME280;10233;50.814;6.590;2024-01-11T04:19:30;101676.59;;;-3.55;100.00
20145;BME280;10233;50.814;6.590;2024-01-11T04:20:30;101687.72;;;-3.51;100.00
20145;BME280;10233;50.814;6.590;2024-01-11T04:21:31;101681.81;;;-3.55;100.00
20145;BME280;10233;50.814;6.590;2024-01-11T04:22:31;101683.50;;;-3.54;100.00
20145;BME280;10233;50.814;6.590;2024-01-11T04:23:32;101675.84;;;-3.57;100.00
20145;BME280;10233;50.814;6.590;2024-01-11T04:24:32;101682.72;;;-3.56;100.00
20145;BME280;10233;50.814;6.590;2024-01-11T04:25:33;101678.78;;;-3.63;100.00
20145;BME280;10233;50.814;6.590;2024-01-11T04:26:33;101680.38;;;-3.60;100.00
20145;BME280;10233;50.814;6.590;2024-01-11T04:27:34;101679.91;;;-3.68;100.00
20145;BME280;10233;50.814;6.590;2024-01-11T04:28:36;101686.41;;;-3.77;100.00
20145;BME280;10233;50.814;6.590;2024-01-11T04:29:37;101688.38;;;-3.82;100.00
20145;BME280;10233;50.814;6.590;2024-01-11T04:30:37;101687.16;;;-3.92;100.00
20145;BME280;10233;50.814;6.590;2024-01-11T04:31:38;101697.28;;;-4.04;100.00
20145;BME280;10233;50.814;6.590;2024-01-11T04:32:38;101698.63;;;-4.14;100.00
20145;BME280;10233;50.814;6.590;2024-01-11T04:33:45;101689.31;;;-4.18;100.00
20145;BME280;10233;50.814;6.590;2024-01-11T04:34:45;101702.59;;;-4.24;100.00
20145;BME280;10233;50.814;6.590;2024-01-11T04:35:46;101704.69;;;-4.32;100.00
20145;BME280;10233;50.814;6.590;2024-01-11T04:36:46;101713.56;;;-4.38;100.00
20145;BME280;10233;50.814;6.590;2024-01-11T04:37:47;101725.84;;;-4.41;100.00
20145;BME280;10233;50.814;6.590;2024-01-11T04:38:47;101719.06;;;-4.44;100.00
20145;BME280;10233;50.814;6.590;2024-01-11T04:39:48;101725.09;;;-4.43;100.00
20145;BME280;10233;50.814;6.590;2024-01-11T04:40:48;101713.09;;;-4.46;100.00
20145;BME280;10233;50.814;6.590;2024-01-11T04:41:49;101717.31;;;-4.43;100.00
20145;BME280;10233;50.814;6.590;2024-01-11T04:42:51;101713.25;;;-4.49;100.00
20145;BME280;10233;50.814;6.590;2024-01-11T04:44:01;101712.47;;;-4.51;100.00
20145;BME280;10233;50.814;6.590;2024-01-11T04:45:02;101715.75;;;-4.47;100.00
20145;BME280;10233;50.814;6.590;2024-01-11T04:46:23;101713.38;;;-4.52;100.00
20145;BME280;10233;50.814;6.590;2024-01-11T04:47:24;101717.66;;;-4.51;100.00
20145;BME280;10233;50.814;6.590;2024-01-11T04:48:35;101716.75;;;-4.50;100.00
20145;BME280;10233;50.814;6.590;2024-01-11T04:49:37;101716.81;;;-4.51;100.00
20145;BME280;10233;50.814;6.590;2024-01-11T04:50:37;101715.56;;;-4.61;100.00
20145;BME280;10233;50.814;6.590;2024-01-11T04:51:38;101731.16;;;-4.63;100.00
20145;BME280;10233;50.814;6.590;2024-01-11T04:52:38;101719.97;;;-4.63;100.00
20145;BME280;10233;50.814;6.590;2024-01-11T04:53:40;101723.97;;;-4.56;100.00
20145;BME280;10233;50.814;6.590;2024-01-11T04:54:41;101730.19;;;-4.60;100.00
20145;BME280;10233;50.814;6.590;2024-01-11T04:55:42;101728.38;;;-4.58;100.00
20145;BME280;10233;50.814;6.590;2024-01-11T04:56:42;101738.19;;;-4.65;100.00
20145;BME280;10233;50.814;6.590;2024-01-11T04:57:43;101732.94;;;-4.63;100.00
20145;BME280;10233;50.814;6.590;2024-01-11T04:58:44;101739.66;;;-4.59;100.00
20145;BME280;10233;50.814;6.590;2024-01-11T04:59:45;101730.25;;;-4.62;100.00
20145;BME280;10233;50.814;6.590;2024-01-11T05:00:45;101739.00;;;-4.64;100.00
20145;BME280;10233;50.814;6.590;2024-01-11T05:01:46;101739.16;;;-4.67;100.00
20145;BME280;10233;50.814;6.590;2024-01-11T05:02:46;101744.28;;;-4.66;100.00
20145;BME280;10233;50.814;6.590;2024-01-11T05:03:47;101746.88;;;-4.66;100.00
20145;BME280;10233;50.814;6.590;2024-01-11T05:04:48;101744.06;;;-4.61;100.00
20145;BME280;10233;50.814;6.590;2024-01-11T05:05:48;101738.03;;;-4.62;100.00
20145;BME280;10233;50.814;6.590;2024-01-11T05:06:51;101743.22;;;-4.62;100.00
20145;BME280;10233;50.814;6.590;2024-01-11T05:07:51;101747.75;;;-4.67;100.00
20145;BME280;10233;50.814;6.590;2024-01-11T05:08:52;101740.00;;;-4.67;100.00
20145;BME280;10233;50.814;6.590;2024-01-11T05:09:53;101742.72;;;-4.70;100.00
20145;BME280;10233;50.814;6.590;2024-01-11T05:10:53;101747.00;;;-4.69;100.00
20145;BME280;10233;50.814;6.590;2024-01-11T05:11:54;101748.03;;;-4.73;100.00
20145;BME280;10233;50.814;6.590;2024-01-11T05:12:54;101747.19;;;-4.73;100.00
20145;BME280;10233;50.814;6.590;2024-01-11T05:13:54;101743.84;;;-4.75;100.00
20145;BME280;10233;50.814;6.590;2024-01-11T05:14:55;101746.72;;;-4.81;100.00